Temp: 3.3°C   Baro: 1026.5mb
  Wind: 0.0mph   Dir: ESE (123°)
  Rain: 0.0mm (0.0mm/hr)
  Solar: 144W/m2  Hum: 97%

Historic data

Bath Spa Weather Station Historical Data
Daily Summary for May 16, 2022 Units:  English    Metric   Both
Daily Weekly Monthly Yearly Custom
  High: Low: Average:
Temperature: 65.4 °F 55.8 °F 60.2 °F
Dew Point: 57.9 °F 52.1 °F 55.6 °F
Humidity: 94% 74.4% 85%
Wind Speed: 12.8mph 0mph 4.6mph
Wind Gust: 22mph - -
Wind- - SSW
Pressure: 30.06 in 29.81 in -
Precipitation: 0.07 in    
Historical Graphs
 
 
Tabular Data for May 16, 2022
Time Temperature Dew Point Pressure Wind Wind Speed Wind Gust Humidity Rainfall Rate (Hourly) solar
00:09 57.7 °F 55.4 °F 29.83 in ESE 3.1 mph 9 mph 92% 0.01 in 0 W/m2
00:14 57.7 °F 55.4 °F 29.84 in ESE 1.2 mph 4 mph 92% 0.01 in 0 W/m2
00:19 57.7 °F 55.4 °F 29.84 in ESE 0.8 mph 3 mph 92% 0.01 in 0 W/m2
00:24 57.7 °F 55.4 °F 29.83 in ESE 1.5 mph 3 mph 92% 0.01 in 0 W/m2
00:29 57.7 °F 55.4 °F 29.83 in ESE 1.2 mph 4 mph 92% 0.01 in 0 W/m2
00:34 57.6 °F 55.3 °F 29.83 in ESE 0.2 mph 2 mph 92% 0.01 in 0 W/m2
00:39 57.6 °F 55.2 °F 29.83 in ESE 1.4 mph 3 mph 92% 0.01 in 0 W/m2
00:44 57.6 °F 55.2 °F 29.83 in ESE 1.5 mph 3 mph 92% 0.01 in 0 W/m2
00:49 57.6 °F 55.2 °F 29.84 in ESE 0.2 mph 3 mph 92% 0.01 in 0 W/m2
00:54 57.4 °F 55 °F 29.84 in ESE 1.3 mph 3 mph 92% 0.01 in 0 W/m2
00:59 57.4 °F 55 °F 29.83 in Calm   3 mph 92% 0.01 in 0 W/m2
01:04 57.4 °F 55 °F 29.83 in Calm     92% 0.00 in 0 W/m2
01:09 57.4 °F 55.3 °F 29.83 in Calm     92.8% 0.00 in 0 W/m2
01:14 57.2 °F 55.2 °F 29.83 in ESE 0.2 mph 3 mph 93% 0.00 in 0 W/m2
01:19 57.2 °F 55.2 °F 29.83 in ESE 0.9 mph 3 mph 93% 0.00 in 0 W/m2
01:24 57.4 °F 55.4 °F 29.83 in ESE 2.2 mph 4 mph 93% 0.01 in 0 W/m2
01:29 57.4 °F 55.4 °F 29.83 in SE 3.2 mph 5 mph 93% 0.01 in 0 W/m2
01:34 57.4 °F 55.4 °F 29.84 in SE 2.4 mph 4 mph 93% 0.02 in 0 W/m2
01:39 57.6 °F 55.6 °F 29.83 in SE 2.5 mph 5 mph 93% 0.02 in 0 W/m2
01:44 57.6 °F 55.6 °F 29.83 in SE 2.5 mph 4 mph 93% 0.02 in 0 W/m2
01:49 57.6 °F 55.6 °F 29.83 in ESE 1 mph 4 mph 93% 0.02 in 0 W/m2
01:54 57.6 °F 55.6 °F 29.83 in ESE 2.1 mph 7 mph 93% 0.02 in 0 W/m2
01:59 57.6 °F 55.7 °F 29.83 in ESE 5 mph 10 mph 93% 0.02 in 0 W/m2
02:04 57.7 °F 55.8 °F 29.83 in SE 3.9 mph 8 mph 93% 0.06 in 0 W/m2
02:09 57.9 °F 55.9 °F 29.83 in SE 6 mph 11 mph 93% 0.06 in 0 W/m2
02:14 57.9 °F 55.9 °F 29.83 in SE 5.4 mph 9 mph 93% 0.07 in 0 W/m2
02:19 57.9 °F 55.9 °F 29.82 in SE 4 mph 11 mph 93% 0.07 in 0 W/m2
02:24 57.9 °F 55.9 °F 29.83 in SE 2.3 mph 11 mph 93% 0.07 in 0 W/m2
02:29 57.9 °F 56 °F 29.83 in SSE 2 mph 4 mph 93.4% 0.06 in 0 W/m2
02:34 57.9 °F 56.1 °F 29.83 in ESE 1.7 mph 6 mph 94% 0.06 in 0 W/m2
02:39 57.9 °F 56.1 °F 29.83 in ESE 0.8 mph 3 mph 94% 0.06 in 0 W/m2
02:44 57.9 °F 56.1 °F 29.82 in ESE 1.4 mph 4 mph 94% 0.06 in 0 W/m2
02:49 57.9 °F 56.1 °F 29.82 in East 1.2 mph 5 mph 94% 0.06 in 0 W/m2
02:54 57.9 °F 56.1 °F 29.82 in Calm   2 mph 94% 0.06 in 0 W/m2
02:59 57.9 °F 56.1 °F 29.82 in East 1.5 mph 3 mph 94% 0.05 in 0 W/m2
03:04 57.8 °F 56 °F 29.82 in East 2.2 mph 4 mph 94% 0.04 in 0 W/m2
03:09 57.7 °F 55.9 °F 29.82 in East 0.9 mph 3 mph 94% 0.01 in 0 W/m2
03:14 57.7 °F 55.9 °F 29.83 in Calm   3 mph 94% 0.01 in 0 W/m2
03:19 57.7 °F 55.9 °F 29.82 in Calm     94% 0.00 in 0 W/m2
03:24 57.7 °F 55.9 °F 29.82 in East 0.6 mph 3 mph 94% 0.00 in 0 W/m2
03:29 57.7 °F 55.9 °F 29.82 in East 2.4 mph 3 mph 94% 0.00 in 0 W/m2
03:34 57.7 °F 55.9 °F 29.82 in East 0.5 mph 3 mph 94% 0.00 in 0 W/m2
03:39 57.6 °F 55.8 °F 29.82 in East 0.9 mph 3 mph 94% 0.00 in 0 W/m2
03:44 57.6 °F 55.8 °F 29.81 in East 2.3 mph 5 mph 94% 0.00 in 0 W/m2
03:49 57.7 °F 55.9 °F 29.82 in East 1.2 mph 4 mph 94% 0.00 in 0 W/m2
03:54 57.7 °F 55.9 °F 29.82 in East 1.2 mph 5 mph 94% 0.00 in 0 W/m2
03:59 57.7 °F 55.9 °F 29.82 in East 1.2 mph 4 mph 94% 0.00 in 0 W/m2
04:04 57.7 °F 55.9 °F 29.82 in ESE 2.7 mph 6 mph 94% 0.00 in 0 W/m2
04:09 57.9 °F 56.1 °F 29.82 in SE 2.3 mph 6 mph 94% 0.00 in 0 W/m2
04:14 57.9 °F 56.1 °F 29.82 in SE 2 mph 5 mph 94% 0.00 in 0 W/m2
04:19 57.9 °F 56.1 °F 29.83 in SE 1.5 mph 3 mph 94% 0.00 in 0 W/m2
04:24 57.9 °F 56.1 °F 29.83 in SE 2 mph 6 mph 94% 0.00 in 0 W/m2
04:29 58.1 °F 56.3 °F 29.83 in SSE 1.8 mph 6 mph 94% 0.00 in 0 W/m2
04:34 58.2 °F 56.4 °F 29.83 in SW 5.8 mph 9 mph 94% 0.00 in 0 W/m2
04:39 58.3 °F 56.5 °F 29.83 in WSW 4 mph 9 mph 94% 0.00 in 0 W/m2
04:44 58.3 °F 56.5 °F 29.83 in SSW 1.5 mph 7 mph 94% 0.00 in 0 W/m2
04:49 58.3 °F 56.5 °F 29.82 in SSW 0.5 mph 2 mph 94% 0.00 in 0 W/m2
04:54 58.1 °F 56.3 °F 29.83 in SSW 1.7 mph 7 mph 94% 0.00 in 0 W/m2
04:59 58.1 °F 56.3 °F 29.83 in SSW 1.3 mph 3 mph 94% 0.00 in 0 W/m2
05:04 57.9 °F 56.1 °F 29.83 in SSW 0.7 mph 3 mph 94% 0.00 in 0 W/m2
05:09 57.9 °F 56.1 °F 29.83 in SW 2.5 mph 6 mph 94% 0.00 in 0 W/m2
05:14 57.7 °F 55.9 °F 29.83 in SW 2.8 mph 7 mph 94% 0.00 in 0 W/m2
05:19 57.7 °F 55.9 °F 29.83 in SSW 2 mph 8 mph 94% 0.00 in 0 W/m2
05:24 57.7 °F 55.9 °F 29.83 in SSW 2.9 mph 6 mph 94% 0.00 in 0 W/m2
05:29 57.6 °F 55.8 °F 29.84 in SSW 3 mph 7 mph 94% 0.00 in 5 W/m2
05:34 57.6 °F 55.7 °F 29.84 in SW 3 mph 9 mph 93.4% 0.00 in 5 W/m2
05:39 57.6 °F 55.6 °F 29.84 in SW 3.7 mph 9 mph 93% 0.00 in 11 W/m2
05:44 57.6 °F 55.6 °F 29.85 in SSW 2.2 mph 10 mph 93% 0.00 in 12 W/m2
05:49 57.6 °F 55.6 °F 29.85 in SSW 2.8 mph 7 mph 93% 0.00 in 11 W/m2
05:54 57.6 °F 55.6 °F 29.85 in SSW 3.7 mph 9 mph 93% 0.00 in 16 W/m2
05:59 57.6 °F 55.6 °F 29.85 in SSW 3.6 mph 7 mph 93% 0.00 in 33 W/m2
06:04 57.6 °F 55.6 °F 29.86 in SW 3.3 mph 8 mph 93% 0.00 in 35 W/m2
06:09 57.6 °F 55.6 °F 29.86 in SW 3.2 mph 8 mph 93% 0.00 in 40 W/m2
06:14 57.6 °F 55.6 °F 29.86 in SSW 2.4 mph 6 mph 93% 0.00 in 47 W/m2
06:19 57.5 °F 55.5 °F 29.85 in SSW 0.7 mph 4 mph 93% 0.00 in 65 W/m2
06:24 57.6 °F 55.6 °F 29.86 in SSW 2.8 mph 6 mph 93% 0.00 in 74 W/m2
06:29 57.6 °F 55.6 °F 29.86 in SW 2.4 mph 6 mph 93% 0.00 in 70 W/m2
06:34 57.7 °F 55.8 °F 29.87 in SW 3.5 mph 6 mph 93% 0.00 in 77 W/m2
06:39 57.7 °F 55.8 °F 29.87 in SW 3.2 mph 6 mph 93% 0.00 in 77 W/m2
06:44 57.7 °F 55.8 °F 29.88 in SW 3.3 mph 7 mph 93% 0.00 in 69 W/m2
06:49 57.7 °F 55.7 °F 29.88 in SW 5.5 mph 11 mph 93% 0.00 in 58 W/m2
06:54 57.6 °F 55.6 °F 29.88 in SW 5.3 mph 10 mph 93% 0.00 in 46 W/m2
06:59 57.6 °F 55.6 °F 29.88 in SW 4.1 mph 7 mph 93% 0.00 in 35 W/m2
07:04 57.6 °F 55.5 °F 29.89 in SW 4.1 mph 7 mph 92.8% 0.00 in 12 W/m2
07:09 57.6 °F 55.3 °F 29.89 in SW 4.6 mph 9 mph 92.4% 0.00 in 11 W/m2
07:14 57.4 °F 55 °F 29.89 in SW 6.2 mph 14 mph 92% 0.00 in 23 W/m2
07:19 57.4 °F 55 °F 29.89 in SW 4.1 mph 9 mph 92% 0.00 in 90 W/m2
07:34 57.6 °F 55.2 °F 29.89 in SW 8.2 mph 9 mph 92% 0.00 in 156 W/m2
07:39 57.6 °F 55.2 °F 29.90 in SW 5.5 mph 11 mph 92% 0.00 in 141 W/m2
07:44 57.6 °F 55.3 °F 29.90 in SW 5.6 mph 11 mph 92% 0.00 in 190 W/m2
07:49 57.8 °F 55.5 °F 29.90 in WSW 5.7 mph 11 mph 92% 0.00 in 195 W/m2
07:54 58.3 °F 55.8 °F 29.90 in SW 5.6 mph 10 mph 91.8% 0.00 in 218 W/m2
07:59 58.5 °F 55.8 °F 29.90 in SW 5.8 mph 13 mph 91% 0.00 in 190 W/m2
08:04 58.8 °F 56.1 °F 29.90 in SW 5.8 mph 13 mph 91% 0.00 in 171 W/m2
08:09 58.9 °F 56 °F 29.90 in WSW 3.6 mph 10 mph 90.2% 0.00 in 200 W/m2
08:14 59 °F 56.1 °F 29.91 in SW 5.1 mph 12 mph 90% 0.00 in 158 W/m2
08:19 59 °F 56.1 °F 29.91 in SW 4.6 mph 11 mph 90% 0.00 in 200 W/m2
08:24 58.8 °F 55.9 °F 29.91 in SW 5.9 mph 13 mph 90% 0.00 in 200 W/m2
08:29 58.8 °F 55.9 °F 29.91 in WSW 5.4 mph 10 mph 90% 0.00 in 223 W/m2
08:34 58.8 °F 55.9 °F 29.91 in SW 5.6 mph 11 mph 89.8% 0.00 in 237 W/m2
08:39 59.2 °F 55.9 °F 29.91 in West 4.6 mph 11 mph 89% 0.00 in 336 W/m2
08:44 59.4 °F 56.1 °F 29.91 in SW 4.9 mph 12 mph 89% 0.00 in 434 W/m2
08:49 59.7 °F 56.5 °F 29.92 in SW 6.2 mph 12 mph 89% 0.00 in 503 W/m2
08:54 59.7 °F 56.1 °F 29.92 in SW 7.6 mph 13 mph 88% 0.00 in 322 W/m2
08:59 59.8 °F 56.2 °F 29.93 in SW 7.4 mph 15 mph 88% 0.00 in 243 W/m2
09:04 59.7 °F 55.9 °F 29.92 in SW 7.6 mph 13 mph 87.2% 0.00 in 267 W/m2
09:09 60.2 °F 56.3 °F 29.92 in WSW 5.6 mph 14 mph 87% 0.00 in 441 W/m2
09:14 60.7 °F 56.7 °F 29.92 in WSW 4.5 mph 9 mph 87% 0.00 in 492 W/m2
09:19 61.1 °F 56.8 °F 29.92 in WSW 4.4 mph 10 mph 85.6% 0.00 in 612 W/m2
09:24 61.3 °F 56.8 °F 29.92 in WSW 5.1 mph 14 mph 85% 0.00 in 309 W/m2
09:29 61 °F 56.1 °F 29.92 in SW 9.2 mph 14 mph 84% 0.00 in 301 W/m2
09:34 61.1 °F 56.2 °F 29.92 in SW 5.1 mph 14 mph 84% 0.00 in 316 W/m2
09:39 61.4 °F 56.6 °F 29.93 in SSW 4.5 mph 13 mph 84% 0.00 in 325 W/m2
09:44 62 °F 56.9 °F 29.93 in WSW 5.2 mph 11 mph 83.4% 0.00 in 301 W/m2
09:49 62.4 °F 57 °F 29.93 in SSW 6.6 mph 15 mph 82.6% 0.00 in 717 W/m2
09:54 62.4 °F 56.6 °F 29.93 in SW 9.4 mph 14 mph 81.4% 0.00 in 717 W/m2
09:59 62.3 °F 56.7 °F 29.93 in WSW 7.9 mph 14 mph 82% 0.00 in 309 W/m2
10:04 62.6 °F 57.1 °F 29.93 in SW 4.5 mph 11 mph 82.2% 0.00 in 464 W/m2
10:09 62.9 °F 57.3 °F 29.93 in SW 6.6 mph 12 mph 82% 0.00 in 376 W/m2
10:14 62.7 °F 57 °F 29.94 in SW 5.2 mph 10 mph 81.6% 0.00 in 499 W/m2
10:19 63 °F 57.4 °F 29.94 in SW 5.6 mph 12 mph 82% 0.00 in 568 W/m2
10:24 63.1 °F 57.1 °F 29.94 in SW 6.7 mph 13 mph 81% 0.00 in 810 W/m2
10:29 63.1 °F 57.2 °F 29.95 in SW 5.8 mph 10 mph 81% 0.00 in 232 W/m2
10:34 63 °F 57 °F 29.95 in WSW 6 mph 12 mph 81% 0.00 in 559 W/m2
10:39 63.2 °F 57.4 °F 29.95 in SW 6.6 mph 12 mph 81.2% 0.00 in 793 W/m2
10:44 63.7 °F 57.5 °F 29.95 in SW 6.6 mph 13 mph 80.2% 0.00 in 842 W/m2
10:49 63.6 °F 57.3 °F 29.95 in WSW 7 mph 11 mph 80% 0.00 in 795 W/m2
10:54 63.7 °F 57 °F 29.96 in WSW 8 mph 14 mph 78.8% 0.00 in 315 W/m2
10:59 64.2 °F 57.2 °F 29.96 in SW 4.5 mph 11 mph 78.2% 0.00 in 905 W/m2
11:04 64.1 °F 56.8 °F 29.95 in SW 5.6 mph 12 mph 77.2% 0.00 in 462 W/m2
11:09 64.5 °F 57 °F 29.95 in SW 6.1 mph 10 mph 76.8% 0.00 in 1007 W/m2
11:14 65 °F 57.3 °F 29.95 in SSW 4.7 mph 9 mph 76% 0.00 in 865 W/m2
11:19 65.4 °F 57.2 °F 29.96 in SSW 6.2 mph 12 mph 74.8% 0.00 in 865 W/m2
11:24 65.1 °F 57.2 °F 29.96 in SW 8 mph 12 mph 75.4% 0.00 in 816 W/m2
11:29 65.1 °F 57.1 °F 29.96 in SW 6.8 mph 15 mph 75.2% 0.00 in 362 W/m2
11:34 65 °F 56.7 °F 29.96 in SW 6.9 mph 15 mph 74.4% 0.00 in 360 W/m2
11:39 64.8 °F 56.6 °F 29.96 in WSW 7.4 mph 13 mph 74.8% 0.00 in 471 W/m2
11:44 65.1 °F 56.9 °F 29.96 in SW 6.8 mph 16 mph 74.8% 0.00 in 454 W/m2
11:49 65.2 °F 57.1 °F 29.96 in SW 4.7 mph 13 mph 74.8% 0.00 in 279 W/m2
11:54 65 °F 57.1 °F 29.97 in SSW 9.2 mph 16 mph 75.6% 0.00 in 345 W/m2
11:59 64.6 °F 57.5 °F 29.97 in South 7.4 mph 18 mph 78% 0.00 in 1234 W/m2
12:04 65 °F 57.9 °F 29.97 in South 6.5 mph 18 mph 77.8% 0.00 in 1234 W/m2
12:09 65.3 °F 57.9 °F 29.97 in SSW 8.2 mph 15 mph 77.2% 0.00 in 1102 W/m2
12:14 64.9 °F 57.6 °F 29.97 in WSW 7.4 mph 17 mph 77% 0.00 in 487 W/m2
12:19 65 °F 57.6 °F 29.97 in SSW 6.6 mph 13 mph 77% 0.00 in 515 W/m2
12:24 64.3 °F 57.3 °F 29.98 in SW 7.4 mph 19 mph 78% 0.00 in 464 W/m2
12:29 63.8 °F 57 °F 29.98 in SW 8 mph 16 mph 78.6% 0.00 in 399 W/m2
12:34 63.7 °F 57.2 °F 29.98 in SW 6.4 mph 15 mph 79.6% 0.00 in 315 W/m2
12:39 63.8 °F 57.5 °F 29.98 in SSW 6.6 mph 14 mph 80% 0.00 in 461 W/m2
12:44 64.1 °F 57.6 °F 29.98 in SW 7.8 mph 15 mph 79.2% 0.00 in 529 W/m2
12:49 64.2 °F 57.6 °F 29.98 in SSW 12.6 mph 17 mph 79% 0.00 in 476 W/m2
12:54 63.9 °F 57.2 °F 29.98 in South 9.4 mph 20 mph 79% 0.00 in 552 W/m2
12:59 63.6 °F 57.1 °F 29.98 in SSW 11.6 mph 18 mph 79.4% 0.00 in 288 W/m2
13:04 63.6 °F 56.9 °F 29.98 in SSW 7.8 mph 21 mph 79% 0.00 in 339 W/m2
13:09 63.7 °F 57 °F 29.98 in SW 9.4 mph 21 mph 78.8% 0.00 in 336 W/m2
13:14 63.7 °F 56.7 °F 29.99 in SSW 8.6 mph 21 mph 78% 0.00 in 302 W/m2
13:19 63.3 °F 56.3 °F 29.98 in SW 9 mph 21 mph 78% 0.00 in 188 W/m2
13:24 62.6 °F 55.9 °F 29.99 in SW 9.7 mph 22 mph 78.8% 0.00 in 225 W/m2
13:29 62.3 °F 56.2 °F 29.98 in SSW 8.5 mph 18 mph 80.3% 0.00 in 295 W/m2
13:34 62.4 °F 56 °F 29.98 in SW 9.4 mph 19 mph 79.6% 0.00 in 283 W/m2
13:39 62.4 °F 55.4 °F 29.98 in SW 9.2 mph 20 mph 77.8% 0.00 in 629 W/m2
13:44 62.8 °F 55.8 °F 29.98 in South 9.6 mph 15 mph 78% 0.00 in 431 W/m2
13:49 63.6 °F 56.2 °F 29.98 in South 7.6 mph 15 mph 76.8% 0.00 in 1100 W/m2
13:54 64.6 °F 56.5 °F 29.98 in SSW 7.4 mph 17 mph 75% 0.00 in 1100 W/m2
13:59 64.4 °F 56.2 °F 29.98 in SSW 7.1 mph 17 mph 74.8% 0.00 in 322 W/m2
14:04 63.9 °F 55.8 °F 29.98 in South 7.4 mph 14 mph 74.8% 0.00 in 330 W/m2
14:09 63.6 °F 55.5 °F 29.98 in South 7 mph 13 mph 75% 0.00 in 279 W/m2
14:14 63.5 °F 55.4 °F 29.98 in SSW 7.2 mph 18 mph 75% 0.00 in 221 W/m2
14:19 62.9 °F 55 °F 29.98 in South 9.4 mph 18 mph 75.8% 0.00 in 197 W/m2
14:24 62.4 °F 55.1 °F 29.98 in SW 7.5 mph 18 mph 77.2% 0.00 in 362 W/m2
14:29 62.3 °F 55.4 °F 29.98 in SSW 6.2 mph 17 mph 78.4% 0.00 in 461 W/m2
14:34 62.8 °F 55.9 °F 29.98 in SSW 7.3 mph 15 mph 78.2% 0.00 in 457 W/m2
14:39 62.4 °F 55.6 °F 29.98 in SSW 8.4 mph 15 mph 78.4% 0.00 in 302 W/m2
14:44 62.2 °F 55.6 °F 29.98 in SSW 6.7 mph 11 mph 79.4% 0.00 in 207 W/m2
14:49 61.7 °F 56.1 °F 29.98 in South 5.4 mph 17 mph 82% 0.00 in 346 W/m2
14:54 61.1 °F 55.9 °F 29.98 in SW 8 mph 13 mph 83.3% 0.00 in 357 W/m2
14:59 60.8 °F 55.9 °F 29.98 in South 6.5 mph 16 mph 84% 0.00 in 345 W/m2
15:04 61.1 °F 56.2 °F 29.98 in SW 7.6 mph 16 mph 84% 0.00 in 350 W/m2
15:09 61.2 °F 56.2 °F 29.98 in SSW 7.1 mph 16 mph 83.6% 0.00 in 392 W/m2
15:14 61.3 °F 56.1 °F 29.98 in SSW 7.9 mph 17 mph 83% 0.00 in 265 W/m2
15:19 61 °F 55.9 °F 29.98 in SSW 7.8 mph 18 mph 83.4% 0.00 in 260 W/m2
15:24 61 °F 56.1 °F 29.98 in SW 7.4 mph 17 mph 84% 0.00 in 251 W/m2
15:29 60.8 °F 55.6 °F 29.98 in SSW 12.8 mph 21 mph 83% 0.00 in 285 W/m2
15:34 60.4 °F 55.3 °F 29.98 in SW 9.3 mph 17 mph 83.2% 0.00 in 260 W/m2
15:39 60.5 °F 55.7 °F 29.98 in SW 9.8 mph 18 mph 84% 0.00 in 230 W/m2
15:44 60.4 °F 55.5 °F 29.98 in SW 7.2 mph 21 mph 84% 0.00 in 214 W/m2
15:49 60.4 °F 55.6 °F 29.98 in SW 7.7 mph 15 mph 84% 0.00 in 227 W/m2
15:54 60.4 °F 55.6 °F 29.98 in SSW 6.3 mph 15 mph 84% 0.00 in 410 W/m2
15:59 60.8 °F 56 °F 29.98 in SSW 8.8 mph 14 mph 84% 0.00 in 577 W/m2
16:04 61.4 °F 56.2 °F 29.98 in SSW 8.6 mph 18 mph 83% 0.00 in 816 W/m2
16:09 62 °F 56.4 °F 29.98 in SSW 8.8 mph 16 mph 82% 0.00 in 791 W/m2
16:14 61.8 °F 56 °F 29.98 in SW 5.9 mph 15 mph 81.4% 0.00 in 299 W/m2
16:19 61.9 °F 56 °F 29.98 in SSW 5.6 mph 12 mph 81.2% 0.00 in 209 W/m2
16:24 62.1 °F 56.2 °F 29.98 in SW 6.9 mph 13 mph 81.4% 0.00 in 889 W/m2
16:29 62.4 °F 56.4 °F 29.98 in SSW 7.8 mph 16 mph 80.8% 0.00 in 789 W/m2
16:34 62.4 °F 56.2 °F 29.98 in SW 6.8 mph 14 mph 80.4% 0.00 in 575 W/m2
16:39 62.9 °F 56.6 °F 29.98 in SSW 7 mph 15 mph 80.2% 0.00 in 863 W/m2
16:43 63.4 °F 57 °F 29.98 in SSW 5.9 mph 12 mph 79.8% 0.00 in 638 W/m2
16:49 63.9 °F 57.2 °F 29.98 in South 8 mph 15 mph 78.8% 0.00 in 652 W/m2
16:54 64.1 °F 57 °F 29.98 in SSW 8.2 mph 16 mph 77.6% 0.00 in 636 W/m2
16:59 63.9 °F 56.7 °F 29.98 in WSW 7.1 mph 10 mph 77.5% 0.00 in 327 W/m2
17:04 63.9 °F 56.8 °F 29.98 in SW 4.3 mph 10 mph 77.8% 0.00 in 350 W/m2
17:09 63.7 °F 56.5 °F 29.98 in WSW 8.2 mph 14 mph 77.6% 0.00 in 229 W/m2
17:14 63.6 °F 56.6 °F 29.98 in South 5.3 mph 14 mph 78% 0.00 in 329 W/m2
17:19 63.9 °F 56.8 °F 29.99 in SW 5.6 mph 14 mph 78% 0.00 in 606 W/m2
17:24 63.9 °F 56.8 °F 29.99 in SW 5.1 mph 14 mph 78% 0.00 in 376 W/m2
17:29 63.9 °F 56.9 °F 29.99 in South 7.4 mph 11 mph 78.2% 0.00 in 308 W/m2
17:34 63.6 °F 56.9 °F 29.99 in SSW 5.3 mph 13 mph 79% 0.00 in 202 W/m2
17:39 63.3 °F 56.8 °F 29.99 in SSW 4 mph 13 mph 79.2% 0.00 in 158 W/m2
17:44 63.7 °F 57 °F 29.99 in SW 4.6 mph 11 mph 79.2% 0.00 in 178 W/m2
17:49 63.9 °F 57.4 °F 29.99 in SW 5.6 mph 12 mph 79.2% 0.00 in 243 W/m2
17:54 64 °F 57 °F 29.99 in SW 5 mph 10 mph 78% 0.00 in 114 W/m2
18:04 64 °F 57 °F 29.99 in SW 5.4 mph 10 mph 78% 0.00 in 123 W/m2
18:09 63.9 °F 56.8 °F 29.99 in WSW 3.2 mph 11 mph 78% 0.00 in 113 W/m2
18:14 63.5 °F 56.5 °F 29.99 in WSW 4.8 mph 8 mph 78% 0.00 in 60 W/m2
18:19 62.9 °F 55.7 °F 29.99 in West 5.4 mph 9 mph 77.6% 0.00 in 40 W/m2
18:24 62.4 °F 55.4 °F 29.99 in West 3.8 mph 8 mph 78% 0.00 in 58 W/m2
18:29 62.3 °F 55.5 °F 29.99 in West 2.4 mph 5 mph 78.4% 0.00 in 69 W/m2
18:34 62.5 °F 55.8 °F 29.99 in West 1.8 mph 4 mph 79% 0.00 in 100 W/m2
18:39 62.8 °F 56.1 °F 30.00 in West 1.3 mph 4 mph 79% 0.00 in 107 W/m2
18:44 62.8 °F 55.8 °F 30.00 in West 2 mph 5 mph 78% 0.00 in 135 W/m2
18:49 63 °F 56 °F 30.00 in WSW 3.1 mph 5 mph 78% 0.00 in 113 W/m2
18:53 63.1 °F 56.1 °F 30.00 in SW 4.7 mph 11 mph 78% 0.00 in 111 W/m2
18:59 63 °F 56 °F 30.00 in SW 5.2 mph 11 mph 78% 0.00 in 123 W/m2
19:04 63 °F 55.6 °F 30.00 in SW 7 mph 11 mph 77% 0.00 in 141 W/m2
19:09 62.8 °F 55.6 °F 30.00 in SW 6.4 mph 11 mph 77.4% 0.00 in 139 W/m2
19:14 62.6 °F 55.2 °F 30.00 in SSW 7.2 mph 14 mph 77% 0.00 in 199 W/m2
19:29 62.3 °F 55.2 °F 30.01 in South 5.2 mph 11 mph 78% 0.00 in 63 W/m2
19:34 62 °F 55 °F 30.01 in SSW 4.8 mph 9 mph 78.2% 0.00 in 79 W/m2
19:39 61.5 °F 55 °F 30.01 in SSW 4.3 mph 10 mph 79% 0.00 in 104 W/m2
19:44 61.3 °F 54.9 °F 30.01 in SSW 4.1 mph 10 mph 79.4% 0.00 in 83 W/m2
19:49 61.1 °F 54.8 °F 30.01 in SW 4.8 mph 10 mph 80% 0.00 in 102 W/m2
19:54 60.7 °F 54.6 °F 30.01 in SW 7.4 mph 12 mph 80% 0.00 in 97 W/m2
19:59 60.5 °F 54.4 °F 30.02 in SW 5.4 mph 10 mph 80.2% 0.00 in 86 W/m2
20:03 60.4 °F 54.5 °F 30.02 in WSW 4 mph 10 mph 81% 0.00 in 70 W/m2
20:09 60.3 °F 54.3 °F 30.01 in SW 5.4 mph 10 mph 81% 0.00 in 63 W/m2
20:14 60.1 °F 54.3 °F 30.01 in SW 6 mph 10 mph 81% 0.00 in 40 W/m2
20:19 59.9 °F 54.1 °F 30.02 in SW 4.9 mph 10 mph 81% 0.00 in 28 W/m2
20:24 59.7 °F 54 °F 30.02 in SW 5.8 mph 9 mph 81.2% 0.00 in 21 W/m2
20:29 59.5 °F 53.9 °F 30.02 in SSW 5.1 mph 13 mph 82% 0.00 in 18 W/m2
20:34 59.4 °F 53.8 °F 30.02 in SSW 2.8 mph 9 mph 82% 0.00 in 14 W/m2
20:39 59.2 °F 53.7 °F 30.02 in SW 4.9 mph 9 mph 82.2% 0.00 in 11 W/m2
20:44 59 °F 53.8 °F 30.02 in SW 4.2 mph 8 mph 83% 0.00 in 9 W/m2
20:49 58.8 °F 53.6 °F 30.03 in SSW 3.6 mph 9 mph 83% 0.00 in 7 W/m2
20:54 58.6 °F 53.4 °F 30.03 in SSW 4.9 mph 8 mph 83% 0.00 in 0 W/m2
20:59 58.6 °F 53.4 °F 30.03 in SSW 4.3 mph 9 mph 83% 0.00 in 0 W/m2
21:03 58.5 °F 53.2 °F 30.03 in SW 3.2 mph 8 mph 83% 0.00 in 0 W/m2
21:09 58.5 °F 53.2 °F 30.03 in SW 2.4 mph 7 mph 83% 0.00 in 0 W/m2
21:14 58.3 °F 53.1 °F 30.03 in WSW 3.3 mph 6 mph 83% 0.00 in 0 W/m2
21:19 58.3 °F 53.1 °F 30.03 in SW 3.5 mph 6 mph 83% 0.00 in 0 W/m2
21:24 58.3 °F 53.1 °F 30.03 in SW 2.8 mph 7 mph 83% 0.00 in 0 W/m2
21:29 58.2 °F 53 °F 30.03 in WSW 3 mph 8 mph 83% 0.00 in 0 W/m2
21:34 58.1 °F 52.9 °F 30.04 in WSW 2.5 mph 5 mph 83% 0.00 in 0 W/m2
21:39 58.1 °F 52.9 °F 30.04 in SSW 3.5 mph 7 mph 83% 0.00 in 0 W/m2
21:44 58.3 °F 53.1 °F 30.04 in SSW 2.9 mph 7 mph 82.8% 0.00 in 0 W/m2
21:49 58.3 °F 52.9 °F 30.04 in SSW 4.6 mph 11 mph 82% 0.00 in 0 W/m2
21:54 58.2 °F 52.8 °F 30.05 in SSW 3.7 mph 9 mph 82% 0.00 in 0 W/m2
21:59 58 °F 52.6 °F 30.05 in SSW 2.9 mph 7 mph 82% 0.00 in 0 W/m2
22:04 57.9 °F 52.5 °F 30.05 in SSW 2.4 mph 6 mph 82% 0.00 in 0 W/m2
22:09 57.9 °F 52.5 °F 30.05 in South 2.5 mph 6 mph 82% 0.00 in 0 W/m2
22:14 57.8 °F 52.4 °F 30.05 in South 1.2 mph 5 mph 82% 0.00 in 0 W/m2
22:19 57.8 °F 52.3 °F 30.05 in South 2.5 mph 4 mph 82% 0.00 in 0 W/m2
22:24 57.7 °F 52.5 °F 30.05 in SSW 2.1 mph 6 mph 82.4% 0.00 in 0 W/m2
22:29 57.7 °F 52.7 °F 30.05 in SSW 2.1 mph 5 mph 83% 0.00 in 0 W/m2
22:34 57.7 °F 52.7 °F 30.05 in SSW 1.8 mph 5 mph 83% 0.00 in 0 W/m2
22:39 57.6 °F 52.5 °F 30.05 in SSW 1.4 mph 5 mph 83.2% 0.00 in 0 W/m2
22:44 57.6 °F 52.7 °F 30.05 in SSW 1.5 mph 3 mph 84% 0.00 in 0 W/m2
22:49 57.6 °F 52.7 °F 30.05 in SSW 1.7 mph 5 mph 84% 0.00 in 0 W/m2
22:54 57.5 °F 52.6 °F 30.05 in SSW 1.2 mph 3 mph 84% 0.00 in 0 W/m2
22:59 57.4 °F 52.5 °F 30.05 in SSW 0.8 mph 3 mph 84% 0.00 in 0 W/m2
23:04 57.3 °F 52.8 °F 30.05 in SSW 0.6 mph 2 mph 85% 0.00 in 0 W/m2
23:09 57 °F 52.5 °F 30.05 in SSW 0.5 mph 3 mph 85% 0.00 in 0 W/m2
23:14 57 °F 52.5 °F 30.05 in SSW 1 mph 3 mph 85% 0.00 in 0 W/m2
23:19 56.8 °F 52.5 °F 30.05 in SSW 1.6 mph 3 mph 85.4% 0.00 in 0 W/m2
23:24 56.8 °F 52.7 °F 30.05 in SSW 1.3 mph 3 mph 86% 0.00 in 0 W/m2
23:28 56.7 °F 52.6 °F 30.05 in SSW 1.9 mph 3 mph 86% 0.00 in 0 W/m2
23:34 56.7 °F 52.5 °F 30.06 in South 0.5 mph 4 mph 86% 0.00 in 0 W/m2
23:39 56.5 °F 52.3 °F 30.06 in South 2 mph 4 mph 86% 0.00 in 0 W/m2
23:44 56.4 °F 52.3 °F 30.06 in South 3.7 mph 7 mph 86% 0.00 in 0 W/m2
23:49 56.1 °F 52.3 °F 30.06 in South 4.2 mph 9 mph 86.8% 0.00 in 0 W/m2
23:54 55.9 °F 52.2 °F 30.06 in South 3.6 mph 7 mph 87% 0.00 in 0 W/m2
23:59 55.8 °F 52.1 °F 30.06 in South 4.5 mph 7 mph 87% 0.00 in 0 W/m2
Bath Spa Weather
Compliments of Weather Underground - 2 mb